createdAt,value
2019-04-07T00:01:38.928Z,8.00
2019-04-07T00:04:00.668Z,8.00
2019-04-07T00:06:22.445Z,7.90
2019-04-07T00:08:44.418Z,7.80
2019-04-07T00:11:08.422Z,7.70
2019-04-07T00:13:29.724Z,7.70
2019-04-07T00:15:51.178Z,7.70
2019-04-07T00:18:12.514Z,7.80
2019-04-07T00:20:33.701Z,7.80
2019-04-07T00:22:55.251Z,7.70
2019-04-07T00:25:16.695Z,7.80
2019-04-07T00:27:38.017Z,7.80
2019-04-07T00:29:59.939Z,7.80
2019-04-07T00:32:21.331Z,7.60
2019-04-07T00:34:42.540Z,7.60
2019-04-07T00:37:03.742Z,7.60
2019-04-07T00:39:25.014Z,7.50
2019-04-07T00:41:46.360Z,7.40
2019-04-07T00:44:07.811Z,7.50
2019-04-07T00:46:29.069Z,7.40
2019-04-07T00:48:50.243Z,7.30
2019-04-07T00:51:11.542Z,7.40
2019-04-07T00:53:32.775Z,7.30
2019-04-07T00:55:54.039Z,7.30
2019-04-07T00:58:15.738Z,7.20
2019-04-07T01:00:39.930Z,7.20
2019-04-07T01:03:01.812Z,7.10
2019-04-07T01:05:34.740Z,7.10
2019-04-07T01:07:46.667Z,7.10
2019-04-07T01:10:08.693Z,7.00
2019-04-07T01:12:30.253Z,7.00
2019-04-07T01:14:52.114Z,7.00
2019-04-07T01:17:13.796Z,7.00
2019-04-07T01:19:35.475Z,6.90
2019-04-07T01:21:56.717Z,7.00
2019-04-07T01:24:18.683Z,6.90
2019-04-07T01:26:40.507Z,7.00
2019-04-07T01:29:02.995Z,7.00
2019-04-07T01:31:25.074Z,7.00
2019-04-07T01:33:46.868Z,7.00
2019-04-07T01:36:08.286Z,6.90
2019-04-07T01:38:29.942Z,6.90
2019-04-07T01:41:03.175Z,6.90
2019-04-07T01:43:33.927Z,6.90
2019-04-07T01:46:03.707Z,6.80
2019-04-07T01:48:27.010Z,6.70
2019-04-07T01:50:55.932Z,6.70
2019-04-07T01:53:22.795Z,6.70
2019-04-07T01:55:46.386Z,6.70
2019-04-07T01:58:09.870Z,6.60
2019-04-07T02:00:33.764Z,6.70
2019-04-07T02:03:13.710Z,6.70
2019-04-07T02:05:37.377Z,6.50
2019-04-07T02:08:01.293Z,6.60
2019-04-07T02:10:34.075Z,6.50
2019-04-07T02:12:57.831Z,6.50
2019-04-07T02:15:32.887Z,6.50
2019-04-07T02:18:11.371Z,6.50
2019-04-07T02:20:54.908Z,6.40
2019-04-07T02:23:33.092Z,6.40
2019-04-07T02:25:56.217Z,6.40
2019-04-07T02:28:21.943Z,6.30
2019-04-07T02:30:52.194Z,6.30
2019-04-07T02:33:28.014Z,6.30
2019-04-07T02:36:14.548Z,6.20
2019-04-07T02:38:23.145Z,6.20
2019-04-07T02:40:58.254Z,6.30
2019-04-07T02:43:25.260Z,6.20
2019-04-07T02:45:49.082Z,6.20
2019-04-07T02:48:16.268Z,6.20
2019-04-07T02:50:58.741Z,6.00
2019-04-07T02:53:35.008Z,5.80
2019-04-07T02:56:04.303Z,5.70
2019-04-07T02:58:33.207Z,5.80
2019-04-07T03:01:02.119Z,5.90
2019-04-07T03:03:28.082Z,5.80
2019-04-07T03:05:51.266Z,5.90
2019-04-07T03:08:17.306Z,5.80
2019-04-07T03:10:57.276Z,5.80
2019-04-07T03:13:24.309Z,5.80
2019-04-07T03:15:50.949Z,5.70
2019-04-07T03:18:29.331Z,5.80
2019-04-07T03:20:59.323Z,5.90
2019-04-07T03:23:28.729Z,5.80
2019-04-07T03:26:07.883Z,5.80
2019-04-07T03:28:33.089Z,5.70
2019-04-07T03:30:58.386Z,5.70
2019-04-07T03:33:40.770Z,5.70
2019-04-07T03:36:08.587Z,5.70
2019-04-07T03:38:33.533Z,5.70
2019-04-07T03:41:03.261Z,5.70
2019-04-07T03:43:26.714Z,5.80
2019-04-07T03:45:49.968Z,5.70
2019-04-07T03:48:19.512Z,5.50
2019-04-07T03:51:00.114Z,5.50
2019-04-07T03:53:26.214Z,5.50
2019-04-07T03:58:43.041Z,5.50
2019-04-07T04:01:24.105Z,5.50
2019-04-07T04:03:56.717Z,5.60
2019-04-07T04:06:30.066Z,5.60
2019-04-07T04:08:56.410Z,5.60
2019-04-07T04:11:28.661Z,5.50
2019-04-07T04:13:52.865Z,5.60
2019-04-07T04:16:14.553Z,5.60
2019-04-07T04:18:35.931Z,5.60
2019-04-07T04:20:57.442Z,5.60
2019-04-07T04:23:19.722Z,5.50
2019-04-07T04:25:41.201Z,5.50
2019-04-07T04:28:02.394Z,5.50
2019-04-07T04:30:23.641Z,5.50
2019-04-07T04:32:45.567Z,5.40
2019-04-07T04:35:08.434Z,5.40
2019-04-07T04:37:39.989Z,5.40
2019-04-07T04:39:53.009Z,5.40
2019-04-07T04:42:14.268Z,5.40
2019-04-07T04:44:35.929Z,5.40
2019-04-07T04:46:58.299Z,5.40
2019-04-07T04:49:20.867Z,5.40
2019-04-07T04:51:42.773Z,5.40
2019-04-07T04:54:05.055Z,5.40
2019-04-07T04:56:26.584Z,5.50
2019-04-07T04:58:47.894Z,5.60
2019-04-07T05:01:09.623Z,5.60
2019-04-07T05:03:31.568Z,5.60
2019-04-07T05:05:53.484Z,5.60
2019-04-07T05:08:14.969Z,5.70
2019-04-07T05:10:36.186Z,5.80
2019-04-07T05:12:57.389Z,5.80
2019-04-07T05:15:18.727Z,5.80
2019-04-07T05:17:40.286Z,5.90
2019-04-07T05:20:04.082Z,5.90
2019-04-07T05:22:25.706Z,6.00
2019-04-07T05:24:47.592Z,6.10
2019-04-07T05:27:09.679Z,6.20
2019-04-07T05:29:31.193Z,6.30
2019-04-07T05:31:52.679Z,6.40
2019-04-07T05:34:17.240Z,6.40
2019-04-07T05:36:37.080Z,6.50
2019-04-07T05:38:58.268Z,6.50
2019-04-07T05:41:19.476Z,6.70
2019-04-07T05:43:40.718Z,6.70
2019-04-07T05:46:01.995Z,6.80
2019-04-07T05:48:23.792Z,7.00
2019-04-07T05:50:46.051Z,7.10
2019-04-07T05:53:12.157Z,7.20
2019-04-07T05:55:31.268Z,7.30
2019-04-07T05:57:53.185Z,7.30
2019-04-07T06:00:16.666Z,7.30
2019-04-07T06:02:38.204Z,7.40
2019-04-07T06:05:00.348Z,7.50
2019-04-07T06:07:25.805Z,7.60
2019-04-07T06:09:45.453Z,7.80
2019-04-07T06:12:09.699Z,7.90
2019-04-07T06:14:30.495Z,8.00
2019-04-07T06:16:53.563Z,8.00
2019-04-07T06:19:15.019Z,8.00
2019-04-07T06:21:36.644Z,8.00
2019-04-07T06:23:59.818Z,7.90
2019-04-07T06:26:21.036Z,8.00
2019-04-07T06:28:42.216Z,8.00
2019-04-07T06:31:03.419Z,8.20
2019-04-07T06:33:25.306Z,8.30
2019-04-07T06:35:47.633Z,8.50
2019-04-07T06:38:09.091Z,8.70
2019-04-07T06:40:30.619Z,8.70
2019-04-07T06:42:52.054Z,8.80
2019-04-07T06:45:15.275Z,8.80
2019-04-07T06:47:55.244Z,8.80
2019-04-07T06:50:18.952Z,9.00
2019-04-07T06:52:42.525Z,9.00
2019-04-07T06:55:16.204Z,8.90
2019-04-07T06:57:41.858Z,8.90
2019-04-07T07:00:25.514Z,9.00
2019-04-07T07:02:51.768Z,9.20
2019-04-07T07:05:34.982Z,9.30
2019-04-07T07:08:10.032Z,9.50
2019-04-07T07:10:50.779Z,9.60
2019-04-07T07:13:29.923Z,9.80
2019-04-07T07:15:48.310Z,10.00
2019-04-07T07:18:14.319Z,10.00
2019-04-07T07:20:38.194Z,10.00
2019-04-07T07:23:01.376Z,10.00
2019-04-07T07:25:29.322Z,10.00
2019-04-07T07:27:49.546Z,10.00
2019-04-07T07:30:11.040Z,10.00
2019-04-07T07:32:35.560Z,10.10
2019-04-07T07:34:55.517Z,10.30
2019-04-07T07:37:16.761Z,10.40
2019-04-07T07:39:41.961Z,10.60
2019-04-07T07:42:01.833Z,10.60
2019-04-07T07:44:23.549Z,10.70
2019-04-07T07:46:45.010Z,10.90
2019-04-07T07:49:06.237Z,11.20
2019-04-07T07:51:27.469Z,11.40
2019-04-07T07:53:48.706Z,11.60
2019-04-07T07:56:12.918Z,11.70
2019-04-07T07:58:47.271Z,11.80
2019-04-07T08:01:11.292Z,12.10
2019-04-07T08:03:31.803Z,12.40
2019-04-07T08:05:53.329Z,12.60
2019-04-07T08:08:15.673Z,12.50
2019-04-07T08:10:39.632Z,12.40
2019-04-07T08:13:05.086Z,12.20
2019-04-07T08:15:29.709Z,12.40
2019-04-07T08:17:47.441Z,12.40
2019-04-07T08:20:11.377Z,12.50
2019-04-07T08:22:39.111Z,12.80
2019-04-07T08:24:55.566Z,12.90
2019-04-07T08:27:17.150Z,13.00
2019-04-07T08:29:39.027Z,13.30
2019-04-07T08:32:02.006Z,13.50
2019-04-07T08:34:25.404Z,13.70
2019-04-07T08:36:47.939Z,13.80
2019-04-07T08:39:21.477Z,14.10
2019-04-07T08:41:34.042Z,14.30
2019-04-07T08:43:57.704Z,14.60
2019-04-07T08:46:18.866Z,14.50
2019-04-07T08:48:40.255Z,14.80
2019-04-07T08:51:01.425Z,15.00
2019-04-07T08:53:23.063Z,15.20
2019-04-07T08:55:44.761Z,15.40
2019-04-07T08:58:07.363Z,15.50
2019-04-07T09:00:31.677Z,15.50
2019-04-07T09:03:01.746Z,15.60
2019-04-07T09:05:16.285Z,15.60
2019-04-07T09:07:40.049Z,15.60
2019-04-07T09:10:03.634Z,15.70
2019-04-07T09:12:28.897Z,15.70
2019-04-07T09:14:49.145Z,15.70
2019-04-07T09:17:15.002Z,15.50
2019-04-07T09:19:38.570Z,15.50
2019-04-07T09:22:08.302Z,15.70
2019-04-07T09:24:32.753Z,15.80
2019-04-07T09:27:17.103Z,15.90
2019-04-07T09:29:58.138Z,15.90
2019-04-07T09:32:21.335Z,16.20
2019-04-07T09:35:02.517Z,15.90
2019-04-07T09:37:31.176Z,15.80
2019-04-07T09:40:09.299Z,16.20
2019-04-07T09:42:33.363Z,16.20
2019-04-07T09:45:03.330Z,15.90
2019-04-07T09:47:27.938Z,15.70
2019-04-07T09:49:58.154Z,15.90
2019-04-07T09:52:23.393Z,16.10
2019-04-07T09:54:58.852Z,16.30
2019-04-07T09:57:31.425Z,16.30
2019-04-07T09:59:55.702Z,16.40
2019-04-07T10:02:26.240Z,16.60
2019-04-07T10:04:49.415Z,16.50
2019-04-07T10:07:15.118Z,17.00
2019-04-07T10:12:24.802Z,17.10
2019-04-07T10:14:58.328Z,16.90
2019-04-07T10:17:24.303Z,16.60
2019-04-07T10:19:53.883Z,16.60
2019-04-07T10:22:21.103Z,16.80
2019-04-07T10:24:53.696Z,16.90
2019-04-07T10:27:33.911Z,17.10
2019-04-07T10:30:14.639Z,17.00
2019-04-07T10:32:40.663Z,17.10
2019-04-07T10:35:16.790Z,17.50
2019-04-07T10:37:51.300Z,17.40
2019-04-07T10:40:31.587Z,17.60
2019-04-07T10:43:06.963Z,17.80
2019-04-07T10:48:15.543Z,17.90
2019-04-07T10:50:39.224Z,17.90
2019-04-07T10:53:11.451Z,17.90
2019-04-07T10:55:40.868Z,17.60
2019-04-07T10:58:22.989Z,17.80
2019-04-07T11:01:02.958Z,17.40
2019-04-07T11:03:43.042Z,17.10
2019-04-07T11:06:23.813Z,17.20
2019-04-07T11:08:49.855Z,17.70
2019-04-07T11:11:15.748Z,18.40
2019-04-07T11:13:38.945Z,18.80
2019-04-07T11:16:02.232Z,19.10
2019-04-07T11:18:28.652Z,19.40
2019-04-07T11:21:09.488Z,19.90
2019-04-07T11:23:39.350Z,19.60
2019-04-07T11:26:14.248Z,20.20
2019-04-07T11:28:54.401Z,19.90
2019-04-07T11:31:25.586Z,19.70
2019-04-07T11:34:04.506Z,19.50
2019-04-07T11:36:27.618Z,19.30
2019-04-07T11:39:03.051Z,19.70
2019-04-07T11:41:43.851Z,19.30
2019-04-07T11:44:09.680Z,18.90
2019-04-07T11:46:32.977Z,19.40
2019-04-07T11:49:13.476Z,19.60
2019-04-07T11:51:40.643Z,19.80
2019-04-07T11:54:20.470Z,19.80
2019-04-07T11:57:02.128Z,18.90
2019-04-07T11:59:42.131Z,19.10
2019-04-07T12:02:22.868Z,19.20
2019-04-07T12:04:55.379Z,18.80
2019-04-07T12:07:25.216Z,19.10
2019-04-07T12:09:59.928Z,19.00
2019-04-07T12:12:26.550Z,19.10
2019-04-07T12:14:56.583Z,19.40
2019-04-07T12:17:23.423Z,19.00
2019-04-07T12:19:54.923Z,18.50
2019-04-07T12:22:19.915Z,18.10
2019-04-07T12:24:52.084Z,17.90
2019-04-07T12:27:15.210Z,18.00
2019-04-07T12:29:51.571Z,18.50
2019-04-07T12:32:21.772Z,18.90
2019-04-07T12:34:46.725Z,19.10
2019-04-07T12:37:10.336Z,19.30
2019-04-07T12:39:36.843Z,19.50
2019-04-07T12:42:16.728Z,19.40
2019-04-07T12:44:57.095Z,19.20
2019-04-07T12:47:20.408Z,19.20
2019-04-07T12:49:46.946Z,19.30
2019-04-07T12:52:11.752Z,19.40
2019-04-07T12:54:41.380Z,19.60
2019-04-07T12:57:05.328Z,19.90
2019-04-07T12:59:30.848Z,19.30
2019-04-07T13:01:57.630Z,19.10
2019-04-07T13:04:37.117Z,18.90
2019-04-07T13:07:19.435Z,19.00
2019-04-07T13:09:48.088Z,19.10
2019-04-07T13:12:28.915Z,19.30
2019-04-07T13:15:10.962Z,19.40
2019-04-07T13:17:35.813Z,19.70
2019-04-07T13:19:58.880Z,19.90
2019-04-07T13:22:29.977Z,19.90
2019-04-07T13:24:53.895Z,20.10
2019-04-07T13:27:32.631Z,19.90
2019-04-07T13:29:57.977Z,19.50
2019-04-07T13:32:41.654Z,19.40
2019-04-07T13:35:00.456Z,19.50
2019-04-07T13:37:23.560Z,20.00
2019-04-07T13:39:58.894Z,20.30
2019-04-07T13:42:31.488Z,20.50
2019-04-07T13:44:54.753Z,20.60
2019-04-07T13:47:42.284Z,20.70
2019-04-07T13:50:02.552Z,20.60
2019-04-07T13:52:34.781Z,19.80
2019-04-07T13:55:13.077Z,20.00
2019-04-07T13:57:37.078Z,19.90
2019-04-07T14:00:12.864Z,19.80
2019-04-07T14:02:34.377Z,19.70
2019-04-07T14:05:07.692Z,19.50
2019-04-07T14:07:44.991Z,19.30
2019-04-07T14:10:26.109Z,19.40
2019-04-07T14:12:55.619Z,19.70
2019-04-07T14:15:25.959Z,20.10
2019-04-07T14:17:52.575Z,20.40
2019-04-07T14:20:16.429Z,20.50
2019-04-07T14:22:42.160Z,20.40
2019-04-07T14:25:07.976Z,20.20
2019-04-07T14:27:37.365Z,20.40
2019-04-07T14:30:07.815Z,21.00
2019-04-07T14:32:31.548Z,21.40
2019-04-07T14:35:04.172Z,21.60
2019-04-07T14:37:30.768Z,21.30
2019-04-07T14:39:56.850Z,21.30
2019-04-07T14:45:09.566Z,20.50
2019-04-07T14:47:49.907Z,20.90
2019-04-07T14:50:13.359Z,21.10
2019-04-07T14:52:37.188Z,20.90
2019-04-07T14:55:01.401Z,20.60
2019-04-07T14:57:31.282Z,20.60
2019-04-07T15:02:29.133Z,20.20
2019-04-07T15:04:53.093Z,20.30
2019-04-07T15:07:32.878Z,20.40
2019-04-07T15:09:56.544Z,20.20
2019-04-07T15:12:46.835Z,20.30
2019-04-07T15:15:11.652Z,20.50
2019-04-07T15:17:32.940Z,20.60
2019-04-07T15:19:54.384Z,20.70
2019-04-07T15:22:15.559Z,20.80
2019-04-07T15:24:37.621Z,20.90
2019-04-07T15:27:00.380Z,20.80
2019-04-07T15:29:22.096Z,21.00
2019-04-07T15:31:43.751Z,20.60
2019-04-07T15:34:09.257Z,20.60
2019-04-07T15:36:28.340Z,20.80
2019-04-07T15:38:49.726Z,21.00
2019-04-07T15:41:15.284Z,20.80
2019-04-07T15:43:35.280Z,20.90
2019-04-07T15:45:56.928Z,20.60
2019-04-07T15:48:19.093Z,20.30
2019-04-07T15:50:54.098Z,20.20
2019-04-07T15:53:16.555Z,20.20
2019-04-07T15:55:49.488Z,20.30
2019-04-07T15:58:02.000Z,20.20
2019-04-07T16:00:23.820Z,20.30
2019-04-07T16:02:46.016Z,20.10
2019-04-07T16:05:07.999Z,20.20
2019-04-07T16:07:29.530Z,20.40
2019-04-07T16:09:56.308Z,20.50
2019-04-07T16:12:14.520Z,20.40
2019-04-07T16:14:36.370Z,20.20
2019-04-07T16:17:02.111Z,19.80
2019-04-07T16:19:34.141Z,19.60
2019-04-07T16:21:44.296Z,19.70
2019-04-07T16:24:07.344Z,19.30
2019-04-07T16:26:31.207Z,19.10
2019-04-07T16:28:52.053Z,19.20
2019-04-07T16:31:13.305Z,19.00
2019-04-07T16:33:35.980Z,18.80
2019-04-07T16:35:57.985Z,18.70
2019-04-07T16:38:20.566Z,18.60
2019-04-07T16:40:43.155Z,18.30
2019-04-07T16:43:13.440Z,18.00
2019-04-07T16:45:28.268Z,18.10
2019-04-07T16:47:49.976Z,18.10
2019-04-07T16:50:12.185Z,18.20
2019-04-07T16:52:34.337Z,18.10
2019-04-07T16:54:56.592Z,17.90
2019-04-07T16:57:17.779Z,17.70
2019-04-07T16:59:41.951Z,17.40
2019-04-07T17:02:17.034Z,17.60
2019-04-07T17:04:38.603Z,17.40
2019-04-07T17:07:04.069Z,17.30
2019-04-07T17:09:26.142Z,17.30
2019-04-07T17:11:46.518Z,17.30
2019-04-07T17:14:09.057Z,17.20
2019-04-07T17:16:30.597Z,17.00
2019-04-07T17:18:55.409Z,16.80
2019-04-07T17:21:18.340Z,16.70
2019-04-07T17:23:40.782Z,16.60
2019-04-07T17:26:04.832Z,16.50
2019-04-07T17:28:25.653Z,16.30
2019-04-07T17:30:47.574Z,16.00
2019-04-07T17:33:09.045Z,15.80
2019-04-07T17:35:30.732Z,15.70
2019-04-07T17:37:53.589Z,15.60
2019-04-07T17:40:17.433Z,15.50
2019-04-07T17:42:38.783Z,15.40
2019-04-07T17:45:21.275Z,15.20
2019-04-07T17:48:04.109Z,15.20
2019-04-07T17:50:42.172Z,15.20
2019-04-07T17:53:14.181Z,15.20
2019-04-07T17:55:48.910Z,15.10
2019-04-07T17:58:16.167Z,15.00
2019-04-07T18:00:43.429Z,14.90
2019-04-07T18:03:09.883Z,14.80
2019-04-07T18:05:37.586Z,14.80
2019-04-07T18:08:01.783Z,14.70
2019-04-07T18:10:30.953Z,14.60
2019-04-07T18:12:54.036Z,14.40
2019-04-07T18:15:36.636Z,14.30
2019-04-07T18:18:00.428Z,14.30
2019-04-07T18:20:26.365Z,14.20
2019-04-07T18:22:54.467Z,14.10
2019-04-07T18:25:34.364Z,14.10
2019-04-07T18:28:01.321Z,14.00
2019-04-07T18:30:24.757Z,13.90
2019-04-07T18:32:53.647Z,13.80
2019-04-07T18:35:16.720Z,13.80
2019-04-07T18:37:57.851Z,13.70
2019-04-07T18:40:33.690Z,13.60
2019-04-07T18:43:03.068Z,13.50
2019-04-07T18:45:26.163Z,13.40
2019-04-07T18:48:08.087Z,13.30
2019-04-07T18:50:43.356Z,13.30
2019-04-07T18:53:10.302Z,13.20
2019-04-07T18:55:37.168Z,13.10
2019-04-07T18:58:01.905Z,13.10
2019-04-07T19:00:27.554Z,13.00
2019-04-07T19:02:50.498Z,13.00
2019-04-07T19:05:22.674Z,13.00
2019-04-07T19:08:02.763Z,12.90
2019-04-07T19:10:35.604Z,12.90
2019-04-07T19:13:05.690Z,12.80
2019-04-07T19:15:36.553Z,12.70
2019-04-07T19:18:14.810Z,12.70
2019-04-07T19:20:40.186Z,12.70
2019-04-07T19:23:06.104Z,12.50
2019-04-07T19:25:33.427Z,12.60
2019-04-07T19:28:14.428Z,12.50
2019-04-07T19:30:37.508Z,12.50
2019-04-07T19:33:12.852Z,12.50
2019-04-07T19:35:39.813Z,12.40
2019-04-07T19:38:03.691Z,12.40
2019-04-07T19:40:28.738Z,12.30
2019-04-07T19:42:52.202Z,12.30
2019-04-07T19:45:27.316Z,12.40
2019-04-07T19:47:56.281Z,12.30
2019-04-07T19:50:21.486Z,12.40
2019-04-07T19:53:03.841Z,12.30
2019-04-07T19:55:28.720Z,12.30
2019-04-07T19:57:52.588Z,12.20
2019-04-07T20:00:22.255Z,12.20
2019-04-07T20:02:46.878Z,12.20
2019-04-07T20:05:10.300Z,12.10
2019-04-07T20:07:53.130Z,12.10
2019-04-07T20:10:19.942Z,12.10
2019-04-07T20:12:47.204Z,12.10
2019-04-07T20:15:29.578Z,12.10
2019-04-07T20:17:58.427Z,12.10
2019-04-07T20:20:30.380Z,12.10
2019-04-07T20:23:02.627Z,12.10
2019-04-07T20:25:46.198Z,12.10
2019-04-07T20:28:08.780Z,12.00
2019-04-07T20:30:37.884Z,12.00
2019-04-07T20:33:01.974Z,12.00
2019-04-07T20:35:27.213Z,12.00
2019-04-07T20:37:58.365Z,11.90
2019-04-07T20:40:24.423Z,11.90
2019-04-07T20:43:05.676Z,11.90
2019-04-07T20:45:38.642Z,11.90
2019-04-07T20:48:11.473Z,11.90
2019-04-07T20:50:37.701Z,11.80
2019-04-07T20:53:10.024Z,11.80
2019-04-07T20:55:39.971Z,11.80
2019-04-07T20:58:16.036Z,11.90
2019-04-07T21:00:35.629Z,11.80
2019-04-07T21:03:19.465Z,11.80
2019-04-07T21:05:44.860Z,11.80
2019-04-07T21:08:08.300Z,11.80
2019-04-07T21:10:35.986Z,11.80
2019-04-07T21:13:03.438Z,11.70
2019-04-07T21:15:41.694Z,11.80
2019-04-07T21:18:08.362Z,11.80
2019-04-07T21:20:32.108Z,11.80
2019-04-07T21:22:58.100Z,11.80
2019-04-07T21:25:30.185Z,11.70
2019-04-07T21:28:00.140Z,11.80
2019-04-07T21:30:42.971Z,11.80
2019-04-07T21:33:22.477Z,11.80
2019-04-07T21:36:04.339Z,11.80
2019-04-07T21:38:33.185Z,11.70
2019-04-07T21:41:14.380Z,11.70
2019-04-07T21:43:41.012Z,11.70
2019-04-07T21:46:22.667Z,11.70
2019-04-07T21:48:48.191Z,11.70
2019-04-07T21:51:15.407Z,11.70
2019-04-07T21:53:36.794Z,11.60
2019-04-07T21:56:15.676Z,11.70
2019-04-07T21:58:39.844Z,11.60
2019-04-07T22:01:07.212Z,11.60
2019-04-07T22:03:46.204Z,11.60
2019-04-07T22:06:21.898Z,11.60
2019-04-07T22:08:51.813Z,11.50
2019-04-07T22:11:13.615Z,11.50
2019-04-07T22:13:35.506Z,11.50
2019-04-07T22:16:01.541Z,11.50
2019-04-07T22:18:21.593Z,11.50
2019-04-07T22:20:43.253Z,11.50
2019-04-07T22:23:08.301Z,11.40
2019-04-07T22:25:30.504Z,11.50
2019-04-07T22:27:54.509Z,11.40
2019-04-07T22:30:16.428Z,11.50
2019-04-07T22:32:38.474Z,11.40
2019-04-07T22:35:02.646Z,11.40
2019-04-07T22:37:23.507Z,11.40
2019-04-07T22:39:45.650Z,11.40
2019-04-07T22:42:07.125Z,11.40
2019-04-07T22:44:29.091Z,11.40
2019-04-07T22:46:52.110Z,11.30
2019-04-07T22:49:13.696Z,11.30
2019-04-07T22:51:38.167Z,11.30
2019-04-07T22:54:00.346Z,11.30
2019-04-07T22:56:22.301Z,11.30
2019-04-07T22:58:44.397Z,11.20
2019-04-07T23:01:07.586Z,11.20
2019-04-07T23:03:29.264Z,11.20
2019-04-07T23:05:51.290Z,11.20
2019-04-07T23:08:12.616Z,11.20
2019-04-07T23:10:33.783Z,11.20
2019-04-07T23:12:55.263Z,11.20
2019-04-07T23:15:16.677Z,11.20
2019-04-07T23:17:38.013Z,11.20
2019-04-07T23:19:59.344Z,11.20
2019-04-07T23:22:20.565Z,11.20
2019-04-07T23:24:41.745Z,11.20
2019-04-07T23:27:04.043Z,11.20
2019-04-07T23:29:26.198Z,11.20
2019-04-07T23:31:47.541Z,11.20
2019-04-07T23:34:08.777Z,11.20
2019-04-07T23:36:30.539Z,11.20
2019-04-07T23:38:51.867Z,11.20
2019-04-07T23:41:13.808Z,11.20
2019-04-07T23:43:35.547Z,11.20
2019-04-07T23:45:56.766Z,11.20
2019-04-07T23:48:18.243Z,11.20
2019-04-07T23:50:39.515Z,11.20
2019-04-07T23:53:21.504Z,11.20
2019-04-07T23:55:42.706Z,11.20
2019-04-07T23:58:04.833Z,11.20
